createdAt,value
2017-08-31T00:02:12.445Z,22.50
2017-08-31T00:04:40.598Z,22.50
2017-08-31T00:07:08.798Z,22.40
2017-08-31T00:09:36.951Z,22.40
2017-08-31T00:12:05.102Z,22.40
2017-08-31T00:14:33.282Z,22.40
2017-08-31T00:17:01.435Z,22.40
2017-08-31T00:19:29.590Z,22.40
2017-08-31T00:21:57.785Z,22.40
2017-08-31T00:24:25.953Z,22.40
2017-08-31T00:26:54.128Z,22.40
2017-08-31T00:29:22.317Z,22.40
2017-08-31T00:31:50.514Z,22.40
2017-08-31T00:34:18.735Z,22.30
2017-08-31T00:36:46.905Z,22.30
2017-08-31T00:39:15.094Z,22.10
2017-08-31T00:41:43.265Z,22.10
2017-08-31T00:44:11.470Z,22.10
2017-08-31T00:46:39.647Z,22.00
2017-08-31T00:49:07.820Z,22.00
2017-08-31T00:51:36.003Z,22.00
2017-08-31T00:54:04.173Z,22.00
2017-08-31T00:56:32.344Z,22.00
2017-08-31T00:59:00.519Z,22.10
2017-08-31T01:01:28.689Z,22.00
2017-08-31T01:03:56.862Z,22.10
2017-08-31T01:06:25.056Z,22.10
2017-08-31T01:08:53.225Z,22.00
2017-08-31T01:11:21.394Z,22.00
2017-08-31T01:13:49.576Z,22.00
2017-08-31T01:16:17.744Z,22.00
2017-08-31T01:18:45.946Z,22.00
2017-08-31T01:21:14.099Z,22.00
2017-08-31T01:23:42.271Z,22.00
2017-08-31T01:26:10.459Z,22.00
2017-08-31T01:28:38.614Z,22.00
2017-08-31T01:31:06.788Z,22.10
2017-08-31T01:33:34.970Z,22.10
2017-08-31T01:36:03.148Z,22.10
2017-08-31T01:38:31.317Z,22.00
2017-08-31T01:40:59.515Z,21.90
2017-08-31T01:43:27.690Z,21.80
2017-08-31T01:45:55.858Z,21.80
2017-08-31T01:48:24.061Z,21.80
2017-08-31T01:50:52.215Z,21.80
2017-08-31T01:53:20.366Z,21.80
2017-08-31T01:55:48.560Z,21.80
2017-08-31T01:58:16.726Z,21.80
2017-08-31T02:00:44.878Z,21.80
2017-08-31T02:03:13.055Z,21.90
2017-08-31T02:05:41.224Z,21.90
2017-08-31T02:08:09.396Z,21.90
2017-08-31T02:10:37.575Z,21.80
2017-08-31T02:13:05.722Z,21.80
2017-08-31T02:15:33.876Z,21.90
2017-08-31T02:18:02.054Z,21.90
2017-08-31T02:20:30.202Z,21.90
2017-08-31T02:22:58.347Z,21.90
2017-08-31T02:25:26.534Z,21.90
2017-08-31T02:27:54.686Z,21.80
2017-08-31T02:30:22.839Z,21.90
2017-08-31T02:32:51.040Z,21.80
2017-08-31T02:35:19.212Z,21.90
2017-08-31T02:37:48.126Z,21.80
2017-08-31T02:40:16.307Z,21.80
2017-08-31T02:42:44.483Z,21.80
2017-08-31T02:45:12.643Z,21.80
2017-08-31T02:47:40.821Z,21.70
2017-08-31T02:50:09.000Z,21.80
2017-08-31T02:52:37.159Z,21.70
2017-08-31T02:55:05.363Z,21.70
2017-08-31T02:57:33.518Z,21.70
2017-08-31T03:00:01.673Z,21.60
2017-08-31T03:02:29.859Z,21.60
2017-08-31T03:04:58.034Z,21.60
2017-08-31T03:07:26.186Z,21.60
2017-08-31T03:09:55.562Z,21.60
2017-08-31T03:12:23.728Z,21.60
2017-08-31T03:14:51.888Z,21.70
2017-08-31T03:17:20.088Z,21.70
2017-08-31T03:19:48.260Z,21.70
2017-08-31T03:22:16.419Z,21.70
2017-08-31T03:24:44.604Z,21.60
2017-08-31T03:27:12.758Z,21.60
2017-08-31T03:29:40.906Z,21.60
2017-08-31T03:32:09.113Z,21.40
2017-08-31T03:34:37.289Z,21.50
2017-08-31T03:37:05.441Z,21.50
2017-08-31T03:39:33.644Z,21.50
2017-08-31T03:42:01.802Z,21.50
2017-08-31T03:44:29.953Z,21.50
2017-08-31T03:46:58.135Z,21.50
2017-08-31T03:49:26.294Z,21.50
2017-08-31T03:51:54.452Z,21.50
2017-08-31T03:54:23.470Z,21.40
2017-08-31T03:56:51.627Z,21.40
2017-08-31T03:59:19.781Z,21.40
2017-08-31T04:01:47.977Z,21.30
2017-08-31T04:04:16.136Z,21.30
2017-08-31T04:06:44.306Z,21.30
2017-08-31T04:09:12.487Z,21.30
2017-08-31T04:11:40.657Z,21.40
2017-08-31T04:14:08.830Z,21.40
2017-08-31T04:16:37.019Z,21.40
2017-08-31T04:19:05.189Z,21.40
2017-08-31T04:21:33.353Z,21.40
2017-08-31T04:24:01.549Z,21.40
2017-08-31T04:26:30.472Z,21.30
2017-08-31T04:28:58.632Z,21.30
2017-08-31T04:31:26.814Z,21.30
2017-08-31T04:33:54.957Z,21.30
2017-08-31T04:36:23.129Z,21.30
2017-08-31T04:38:51.322Z,21.30
2017-08-31T04:41:20.254Z,21.20
2017-08-31T04:43:48.422Z,21.20
2017-08-31T04:46:16.617Z,21.30
2017-08-31T04:48:44.771Z,21.20
2017-08-31T04:51:12.927Z,21.10
2017-08-31T04:53:41.122Z,21.00
2017-08-31T04:56:09.296Z,20.90
2017-08-31T04:58:37.461Z,20.90
2017-08-31T05:01:05.645Z,20.90
2017-08-31T05:03:33.794Z,20.90
2017-08-31T05:06:01.965Z,20.90
2017-08-31T05:08:30.158Z,21.00
2017-08-31T05:10:58.331Z,21.00
2017-08-31T05:13:26.516Z,21.00
2017-08-31T05:15:54.715Z,21.10
2017-08-31T05:18:22.869Z,21.10
2017-08-31T05:20:51.025Z,21.10
2017-08-31T05:23:19.225Z,21.20
2017-08-31T05:25:47.400Z,21.20
2017-08-31T05:28:15.569Z,21.10
2017-08-31T05:30:43.765Z,21.00
2017-08-31T05:33:11.915Z,20.90
2017-08-31T05:35:40.085Z,20.90
2017-08-31T05:38:08.283Z,20.80
2017-08-31T05:40:36.435Z,20.80
2017-08-31T05:43:04.583Z,20.70
2017-08-31T05:45:32.765Z,20.70
2017-08-31T05:48:00.918Z,20.70
2017-08-31T05:50:29.071Z,20.70
2017-08-31T05:52:57.305Z,20.80
2017-08-31T05:55:25.471Z,20.80
2017-08-31T05:57:53.644Z,20.80
2017-08-31T06:00:21.824Z,20.80
2017-08-31T06:02:50.020Z,20.70
2017-08-31T06:05:18.192Z,20.60
2017-08-31T06:07:46.390Z,20.70
2017-08-31T06:10:14.562Z,20.70
2017-08-31T06:12:42.714Z,20.70
2017-08-31T06:15:10.912Z,20.60
2017-08-31T06:17:39.069Z,20.60
2017-08-31T06:20:07.248Z,20.50
2017-08-31T06:22:35.453Z,20.60
2017-08-31T06:25:03.613Z,20.60
2017-08-31T06:27:31.785Z,20.50
2017-08-31T06:29:59.962Z,20.60
2017-08-31T06:32:28.129Z,20.60
2017-08-31T06:34:56.282Z,20.50
2017-08-31T06:37:24.467Z,20.60
2017-08-31T06:39:52.622Z,20.60
2017-08-31T06:42:20.794Z,20.40
2017-08-31T06:44:48.968Z,20.50
2017-08-31T06:47:17.148Z,20.70
2017-08-31T06:49:45.320Z,20.70
2017-08-31T06:52:13.528Z,20.70
2017-08-31T06:54:41.697Z,20.80
2017-08-31T06:57:09.861Z,20.80
2017-08-31T06:59:38.045Z,20.80
2017-08-31T07:02:06.215Z,20.60
2017-08-31T07:04:34.384Z,20.60
2017-08-31T07:07:02.575Z,20.60
2017-08-31T07:09:30.744Z,20.60
2017-08-31T07:11:58.911Z,20.50
2017-08-31T07:14:27.109Z,20.50
2017-08-31T07:16:55.275Z,20.40
2017-08-31T07:19:23.423Z,20.20
2017-08-31T07:21:51.620Z,20.20
2017-08-31T07:24:19.795Z,20.20
2017-08-31T07:26:47.941Z,20.10
2017-08-31T07:29:16.138Z,20.10
2017-08-31T07:31:44.300Z,20.00
2017-08-31T07:34:12.476Z,20.00
2017-08-31T07:36:40.650Z,20.00
2017-08-31T07:39:08.809Z,20.00
2017-08-31T07:41:36.954Z,20.00
2017-08-31T07:44:05.159Z,20.00
2017-08-31T07:46:33.314Z,20.00
2017-08-31T07:49:01.464Z,20.10
2017-08-31T07:51:30.406Z,20.30
2017-08-31T07:53:58.576Z,20.30
2017-08-31T07:56:26.729Z,20.40
2017-08-31T07:58:55.256Z,20.60
2017-08-31T08:01:23.425Z,20.50
2017-08-31T08:03:51.600Z,20.50
2017-08-31T08:06:19.790Z,20.30
2017-08-31T08:08:48.755Z,20.20
2017-08-31T08:11:16.908Z,20.10
2017-08-31T08:13:45.412Z,20.00
2017-08-31T08:16:13.560Z,20.10
2017-08-31T08:18:41.725Z,20.00
2017-08-31T08:21:09.909Z,20.00
2017-08-31T08:23:38.054Z,20.00
2017-08-31T08:26:06.207Z,20.00
2017-08-31T08:28:34.402Z,20.10
2017-08-31T08:31:02.564Z,20.10
2017-08-31T08:33:30.706Z,20.00
2017-08-31T08:35:58.906Z,19.90
2017-08-31T08:38:27.054Z,19.90
2017-08-31T08:40:55.217Z,19.80
2017-08-31T08:43:23.408Z,19.90
2017-08-31T08:45:51.549Z,19.80
2017-08-31T08:48:19.698Z,19.80
2017-08-31T08:50:48.662Z,19.90
2017-08-31T08:53:16.809Z,19.80
2017-08-31T08:55:44.963Z,20.00
2017-08-31T08:58:13.157Z,19.90
2017-08-31T09:00:41.320Z,20.00
2017-08-31T09:03:09.481Z,20.10
2017-08-31T09:05:37.672Z,20.00
2017-08-31T09:08:05.814Z,19.90
2017-08-31T09:10:33.969Z,20.00
2017-08-31T09:13:02.147Z,20.00
2017-08-31T09:15:30.298Z,20.00
2017-08-31T09:17:58.462Z,19.90
2017-08-31T09:20:26.638Z,19.90
2017-08-31T09:22:54.804Z,19.80
2017-08-31T09:25:22.951Z,19.70
2017-08-31T09:27:51.163Z,19.60
2017-08-31T09:30:19.336Z,19.60
2017-08-31T09:32:47.478Z,19.40
2017-08-31T09:35:15.664Z,19.30
2017-08-31T09:37:43.824Z,19.30
2017-08-31T09:40:11.989Z,19.30
2017-08-31T09:42:40.158Z,19.40
2017-08-31T09:45:08.307Z,19.60
2017-08-31T09:47:36.456Z,19.80
2017-08-31T09:50:04.630Z,19.90
2017-08-31T09:52:32.775Z,19.70
2017-08-31T09:55:00.942Z,19.60
2017-08-31T09:57:29.118Z,19.60
2017-08-31T09:59:57.284Z,19.80
2017-08-31T10:02:25.430Z,20.00
2017-08-31T10:04:53.601Z,20.10
2017-08-31T10:07:21.764Z,20.40
2017-08-31T10:09:49.907Z,20.60
2017-08-31T10:12:18.086Z,20.70
2017-08-31T10:14:46.251Z,20.70
2017-08-31T10:17:14.397Z,20.50
2017-08-31T10:19:43.351Z,20.10
2017-08-31T10:22:11.494Z,20.10
2017-08-31T10:24:39.638Z,20.20
2017-08-31T10:27:07.818Z,20.20
2017-08-31T10:29:36.730Z,20.40
2017-08-31T10:32:04.874Z,20.30
2017-08-31T10:34:33.055Z,20.40
2017-08-31T10:37:01.203Z,20.50
2017-08-31T10:39:29.365Z,20.70
2017-08-31T10:41:57.542Z,20.70
2017-08-31T10:44:25.688Z,20.60
2017-08-31T10:46:53.869Z,20.50
2017-08-31T10:49:22.069Z,20.50
2017-08-31T10:51:50.225Z,20.60
2017-08-31T10:54:18.375Z,20.60
2017-08-31T10:56:46.572Z,20.50
2017-08-31T10:59:14.719Z,20.50
2017-08-31T11:01:42.890Z,20.30
2017-08-31T11:04:11.085Z,20.40
2017-08-31T11:06:39.236Z,20.30
2017-08-31T11:09:07.402Z,20.30
2017-08-31T11:11:35.591Z,20.10
2017-08-31T11:14:03.750Z,19.90
2017-08-31T11:16:31.922Z,19.90
2017-08-31T11:19:00.126Z,20.00
2017-08-31T11:21:28.281Z,20.30
2017-08-31T11:23:56.448Z,20.80
2017-08-31T11:26:24.615Z,21.20
2017-08-31T11:28:52.907Z,22.00
2017-08-31T11:31:21.074Z,22.50
2017-08-31T11:33:49.228Z,22.70
2017-08-31T11:36:17.466Z,22.50
2017-08-31T11:38:45.530Z,22.20
2017-08-31T11:41:13.722Z,22.10
2017-08-31T11:43:41.886Z,22.10
2017-08-31T11:46:10.050Z,22.40
2017-08-31T11:48:38.257Z,22.80
2017-08-31T11:51:06.412Z,22.90
2017-08-31T11:53:34.559Z,22.90
2017-08-31T11:56:02.738Z,22.80
2017-08-31T11:58:30.884Z,22.60
2017-08-31T12:00:59.049Z,22.60
2017-08-31T12:03:27.241Z,22.70
2017-08-31T12:05:55.387Z,22.80
2017-08-31T12:08:23.556Z,22.90
2017-08-31T12:10:51.728Z,23.40
2017-08-31T12:13:19.906Z,23.70
2017-08-31T12:15:48.054Z,24.10
2017-08-31T12:18:16.260Z,24.10
2017-08-31T12:20:44.421Z,24.00
2017-08-31T12:23:12.580Z,24.00
2017-08-31T12:25:40.777Z,23.90
2017-08-31T12:28:08.947Z,24.20
2017-08-31T12:30:37.086Z,24.50
2017-08-31T12:33:05.266Z,25.10
2017-08-31T12:35:33.420Z,25.30
2017-08-31T12:38:02.348Z,24.90
2017-08-31T12:40:30.841Z,24.80
2017-08-31T12:42:59.005Z,24.60
2017-08-31T12:45:27.150Z,24.60
2017-08-31T12:47:55.341Z,24.60
2017-08-31T12:50:23.487Z,24.70
2017-08-31T12:52:51.653Z,24.50
2017-08-31T12:55:19.828Z,24.20
2017-08-31T12:57:48.014Z,23.80
2017-08-31T13:00:16.180Z,23.60
2017-08-31T13:02:44.919Z,23.30
2017-08-31T13:08:12.001Z,23.00
2017-08-31T13:10:40.160Z,22.90
2017-08-31T13:13:08.330Z,22.90
2017-08-31T13:15:36.534Z,23.00
2017-08-31T13:18:04.696Z,23.10
2017-08-31T13:20:32.864Z,23.30
2017-08-31T13:23:01.042Z,23.60
2017-08-31T13:25:29.212Z,23.60
2017-08-31T13:27:57.350Z,23.50
2017-08-31T13:30:25.541Z,23.30
2017-08-31T13:32:53.705Z,23.20
2017-08-31T13:35:21.879Z,23.00
2017-08-31T13:37:50.049Z,22.90
2017-08-31T13:40:18.957Z,22.40
2017-08-31T13:42:47.102Z,22.40
2017-08-31T13:45:16.052Z,21.90
2017-08-31T13:47:44.194Z,21.90
2017-08-31T13:50:12.349Z,21.70
2017-08-31T13:52:40.523Z,21.60
2017-08-31T13:55:08.668Z,21.40
2017-08-31T13:57:36.818Z,21.30
2017-08-31T14:00:04.992Z,21.10
2017-08-31T14:02:33.134Z,21.00
2017-08-31T14:05:01.300Z,20.90
2017-08-31T14:07:29.474Z,21.10
2017-08-31T14:09:57.640Z,21.10
2017-08-31T14:12:25.784Z,21.10
2017-08-31T14:14:53.984Z,21.10
2017-08-31T14:17:22.135Z,21.00
2017-08-31T14:19:50.286Z,20.80
2017-08-31T14:22:18.472Z,20.80
2017-08-31T14:24:46.623Z,20.80
2017-08-31T14:27:14.771Z,20.80
2017-08-31T14:29:42.938Z,20.80
2017-08-31T14:32:11.088Z,20.90
2017-08-31T14:34:39.255Z,20.90
2017-08-31T14:37:07.444Z,20.70
2017-08-31T14:39:35.592Z,20.60
2017-08-31T14:42:03.765Z,20.40
2017-08-31T14:44:31.931Z,20.20
2017-08-31T14:47:00.094Z,20.10
2017-08-31T14:49:28.260Z,20.00
2017-08-31T14:51:56.431Z,20.10
2017-08-31T14:54:24.574Z,20.10
2017-08-31T14:56:52.741Z,20.10
2017-08-31T14:59:20.913Z,20.20
2017-08-31T15:01:49.844Z,20.00
2017-08-31T15:04:18.020Z,20.00
2017-08-31T15:06:46.213Z,20.00
2017-08-31T15:09:14.378Z,20.20
2017-08-31T15:11:42.525Z,20.20
2017-08-31T15:14:10.703Z,20.40
2017-08-31T15:16:38.845Z,20.50
2017-08-31T15:19:07.012Z,20.50
2017-08-31T15:21:35.208Z,20.50
2017-08-31T15:24:03.363Z,20.60
2017-08-31T15:26:31.524Z,20.60
2017-08-31T15:28:59.700Z,20.70
2017-08-31T15:31:27.873Z,20.60
2017-08-31T15:33:56.075Z,20.50
2017-08-31T15:36:24.286Z,20.50
2017-08-31T15:38:52.448Z,20.60
2017-08-31T15:41:20.590Z,20.50
2017-08-31T15:43:48.771Z,20.50
2017-08-31T15:46:16.933Z,20.40
2017-08-31T15:48:45.083Z,20.40
2017-08-31T15:51:13.269Z,20.40
2017-08-31T15:53:41.464Z,20.40
2017-08-31T15:56:09.614Z,20.30
2017-08-31T15:58:37.783Z,20.10
2017-08-31T16:01:05.931Z,19.90
2017-08-31T16:03:34.093Z,19.80
2017-08-31T16:06:02.283Z,19.70
2017-08-31T16:08:30.445Z,19.70
2017-08-31T16:10:58.604Z,19.70
2017-08-31T16:13:26.778Z,19.80
2017-08-31T16:15:54.945Z,19.80
2017-08-31T16:18:23.104Z,19.80
2017-08-31T16:20:51.276Z,19.70
2017-08-31T16:23:19.420Z,19.70
2017-08-31T16:25:47.591Z,19.70
2017-08-31T16:28:15.785Z,19.70
2017-08-31T16:30:43.949Z,19.70
2017-08-31T16:33:12.120Z,19.60
2017-08-31T16:35:40.314Z,19.60
2017-08-31T16:38:08.476Z,19.50
2017-08-31T16:40:36.638Z,19.30
2017-08-31T16:43:04.829Z,19.30
2017-08-31T16:45:32.988Z,19.20
2017-08-31T16:48:01.149Z,19.20
2017-08-31T16:50:29.324Z,19.10
2017-08-31T16:52:57.481Z,19.10
2017-08-31T16:55:25.628Z,19.10
2017-08-31T16:57:54.588Z,19.00
2017-08-31T17:00:22.738Z,19.00
2017-08-31T17:02:50.901Z,18.90
2017-08-31T17:05:19.078Z,18.80
2017-08-31T17:07:47.221Z,18.70
2017-08-31T17:10:15.385Z,18.70
2017-08-31T17:12:43.562Z,18.70
2017-08-31T17:15:11.703Z,18.60
2017-08-31T17:17:39.846Z,18.50
2017-08-31T17:20:08.036Z,18.50
2017-08-31T17:22:36.192Z,18.40
2017-08-31T17:25:04.336Z,18.40
2017-08-31T17:27:32.510Z,18.50
2017-08-31T17:30:00.753Z,18.50
2017-08-31T17:32:28.949Z,18.50
2017-08-31T17:34:57.130Z,18.60
2017-08-31T17:37:25.276Z,18.60
2017-08-31T17:39:53.440Z,18.60
2017-08-31T17:42:21.636Z,18.60
2017-08-31T17:44:49.800Z,18.50
2017-08-31T17:47:17.948Z,18.40
2017-08-31T17:49:46.121Z,18.40
2017-08-31T17:52:14.280Z,18.40
2017-08-31T17:54:42.445Z,18.40
2017-08-31T17:57:10.633Z,18.50
2017-08-31T17:59:38.778Z,18.40
2017-08-31T18:02:06.941Z,18.50
2017-08-31T18:04:35.132Z,18.40
2017-08-31T18:07:03.277Z,18.50
2017-08-31T18:09:31.427Z,18.50
2017-08-31T18:11:59.598Z,18.50
2017-08-31T18:14:27.761Z,18.50
2017-08-31T18:16:55.942Z,18.40
2017-08-31T18:19:24.121Z,18.40
2017-08-31T18:21:52.263Z,18.40
2017-08-31T18:24:20.413Z,18.30
2017-08-31T18:26:48.605Z,18.30
2017-08-31T18:29:16.746Z,18.30
2017-08-31T18:31:44.913Z,18.20
2017-08-31T18:34:13.089Z,18.20
2017-08-31T18:36:41.229Z,18.10
2017-08-31T18:39:09.370Z,18.10
2017-08-31T18:41:37.549Z,18.10
2017-08-31T18:44:05.789Z,18.10
2017-08-31T18:46:33.947Z,18.10
2017-08-31T18:49:02.136Z,18.10
2017-08-31T18:51:30.281Z,18.10
2017-08-31T18:53:58.423Z,18.10
2017-08-31T18:56:26.599Z,18.10
2017-08-31T18:58:54.746Z,18.00
2017-08-31T19:01:22.913Z,18.00
2017-08-31T19:03:51.082Z,18.00
2017-08-31T19:06:19.245Z,17.90
2017-08-31T19:08:47.406Z,17.80
2017-08-31T19:11:15.593Z,17.80
2017-08-31T19:13:43.734Z,17.70
2017-08-31T19:16:11.889Z,17.70
2017-08-31T19:18:40.851Z,17.60
2017-08-31T19:21:09.013Z,17.50
2017-08-31T19:23:37.154Z,17.50
2017-08-31T19:26:05.353Z,17.50
2017-08-31T19:28:33.516Z,17.40
2017-08-31T19:31:01.658Z,17.40
2017-08-31T19:33:29.829Z,17.40
2017-08-31T19:35:57.974Z,17.40
2017-08-31T19:38:26.117Z,17.40
2017-08-31T19:40:54.286Z,17.40
2017-08-31T19:43:22.449Z,17.30
2017-08-31T19:45:50.595Z,17.40
2017-08-31T19:48:18.770Z,17.30
2017-08-31T19:50:46.941Z,17.30
2017-08-31T19:53:15.104Z,17.30
2017-08-31T19:55:43.278Z,17.30
2017-08-31T19:58:11.425Z,17.30
2017-08-31T20:00:39.570Z,17.30
2017-08-31T20:03:07.754Z,17.30
2017-08-31T20:05:36.161Z,17.30
2017-08-31T20:08:04.322Z,17.30
2017-08-31T20:10:32.513Z,17.30
2017-08-31T20:13:00.657Z,17.20
2017-08-31T20:15:28.802Z,17.20
2017-08-31T20:17:56.995Z,17.20
2017-08-31T20:20:25.161Z,17.20
2017-08-31T20:22:53.329Z,17.10
2017-08-31T20:25:22.285Z,17.10
2017-08-31T20:27:50.434Z,17.00
2017-08-31T20:30:18.600Z,17.10
2017-08-31T20:32:46.789Z,17.00
2017-08-31T20:35:14.960Z,17.00
2017-08-31T20:37:43.120Z,16.90
2017-08-31T20:40:11.291Z,16.90
2017-08-31T20:42:39.436Z,16.80
2017-08-31T20:45:08.351Z,16.80
2017-08-31T20:47:36.525Z,16.70
2017-08-31T20:50:04.676Z,16.70
2017-08-31T20:52:32.822Z,16.70
2017-08-31T20:55:01.012Z,16.80
2017-08-31T20:57:29.172Z,16.70
2017-08-31T20:59:57.336Z,16.80
2017-08-31T21:02:25.522Z,16.80
2017-08-31T21:04:53.670Z,16.80
2017-08-31T21:07:21.832Z,16.90
2017-08-31T21:09:49.997Z,16.80
2017-08-31T21:12:18.141Z,16.90
2017-08-31T21:14:46.307Z,16.80
2017-08-31T21:17:14.479Z,16.80
2017-08-31T21:19:42.633Z,16.80
2017-08-31T21:22:10.778Z,16.70
2017-08-31T21:24:39.839Z,16.60
2017-08-31T21:27:08.767Z,16.40
2017-08-31T21:29:36.940Z,16.40
2017-08-31T21:32:05.134Z,16.40
2017-08-31T21:34:32.834Z,16.40
2017-08-31T21:37:00.978Z,16.40
2017-08-31T21:39:29.164Z,16.30
2017-08-31T21:41:57.301Z,16.40
2017-08-31T21:44:25.445Z,16.40
2017-08-31T21:46:53.637Z,16.40
2017-08-31T21:49:21.803Z,16.40
2017-08-31T21:51:50.728Z,16.40
2017-08-31T21:54:18.926Z,16.30
2017-08-31T21:56:47.092Z,16.30
2017-08-31T21:59:15.253Z,16.20
2017-08-31T22:01:43.418Z,16.20
2017-08-31T22:04:11.599Z,16.10
2017-08-31T22:06:39.742Z,16.10
2017-08-31T22:09:07.944Z,16.10
2017-08-31T22:11:36.107Z,16.20
2017-08-31T22:14:04.271Z,16.00
2017-08-31T22:16:32.460Z,16.00
2017-08-31T22:19:00.621Z,16.00
2017-08-31T22:21:28.762Z,16.00
2017-08-31T22:23:56.952Z,16.10
2017-08-31T22:26:25.120Z,16.10
2017-08-31T22:28:54.043Z,16.10
2017-08-31T22:31:22.229Z,16.00
2017-08-31T22:33:50.384Z,16.10
2017-08-31T22:36:18.527Z,16.00
2017-08-31T22:38:46.726Z,16.10
2017-08-31T22:41:14.874Z,16.10
2017-08-31T22:43:43.022Z,16.10
2017-08-31T22:46:11.198Z,16.10
2017-08-31T22:48:39.366Z,16.10
2017-08-31T22:51:07.512Z,16.00
2017-08-31T22:53:35.679Z,16.00
2017-08-31T22:56:03.831Z,16.00
2017-08-31T22:58:43.833Z,16.00
2017-08-31T23:01:11.995Z,16.00
2017-08-31T23:03:40.983Z,16.00
2017-08-31T23:06:09.177Z,16.00
2017-08-31T23:08:37.347Z,16.00
2017-08-31T23:11:05.509Z,16.00
2017-08-31T23:13:33.681Z,16.00
2017-08-31T23:16:01.844Z,16.00
2017-08-31T23:18:29.995Z,16.00
2017-08-31T23:20:58.212Z,15.90
2017-08-31T23:23:26.356Z,15.90
2017-08-31T23:25:54.511Z,15.80
2017-08-31T23:28:22.701Z,15.80
2017-08-31T23:30:50.871Z,15.70
2017-08-31T23:33:19.805Z,15.70
2017-08-31T23:35:48.008Z,15.60
2017-08-31T23:38:16.171Z,15.60
2017-08-31T23:40:44.317Z,15.60
2017-08-31T23:43:12.510Z,15.50
2017-08-31T23:45:40.655Z,15.50
2017-08-31T23:48:10.896Z,15.50
2017-08-31T23:50:39.089Z,15.50
2017-08-31T23:53:07.257Z,15.50
2017-08-31T23:55:35.441Z,15.50
2017-08-31T23:58:03.696Z,15.50
